Time;durP1;ratioP1;P1;durP2;ratioP2;P2;SDS_P1;SDS_P2;PMS_P1;PMS_P2;Temp;Humidity;BMP_temperature;BMP_pressure;BME280_temperature;BME280_humidity;BME280_pressure;Samples;Min_cycle;Max_cycle;Signal;HPM_P1;HPM_P2
2023/08/28 00:01:37;;;;;;;10.18;7.55;;;;;;;22.41;100.00;100310.06;5125165;27;20123;-77
2023/08/28 00:04:02;;;;;;;9.73;7.20;;;;;;;22.81;100.00;100376.31;5134294;27;20063;-78
2023/08/28 00:06:28;;;;;;;9.82;6.93;;;;;;;22.52;100.00;100330.88;5134681;27;20034;-78
2023/08/28 00:08:53;;;;;;;11.13;6.75;;;;;;;22.67;100.00;100360.06;5133987;27;20023;-77
2023/08/28 00:11:18;;;;;;;11.77;7.15;;;;;;;22.20;100.00;100296.06;5134551;27;20019;-77
2023/08/28 00:13:44;;;;;;;12.65;7.07;;;;;;;22.35;100.00;100339.00;5115897;27;20027;-76
2023/08/28 00:16:09;;;;;;;9.63;7.30;;;;;;;21.96;100.00;100285.66;5134290;27;20035;-78
2023/08/28 00:18:35;;;;;;;12.73;7.20;;;;;;;22.12;100.00;100285.41;5134655;27;20050;-77
2023/08/28 00:21:01;;;;;;;11.88;7.10;;;;;;;22.00;100.00;100297.47;5134341;27;20481;-77
2023/08/28 00:23:26;;;;;;;11.93;7.10;;;;;;;21.52;100.00;100251.63;5134099;27;20019;-80
2023/08/28 00:25:52;;;;;;;8.88;7.18;;;;;;;22.50;100.00;100340.53;5133239;27;20027;-78
2023/08/28 00:28:17;;;;;;;11.80;7.70;;;;;;;22.51;100.00;100324.03;5134337;27;20027;-77
2023/08/28 00:30:42;;;;;;;11.50;7.25;;;;;;;22.27;100.00;100276.53;5134305;27;20023;-78
2023/08/28 00:33:08;;;;;;;10.57;7.53;;;;;;;21.95;100.00;100289.16;5133779;27;20109;-78
2023/08/28 00:35:34;;;;;;;9.85;8.18;;;;;;;22.22;100.00;100328.66;5133753;27;20031;-79
2023/08/28 00:37:59;;;;;;;10.65;8.25;;;;;;;22.58;100.00;100321.84;5133910;27;20073;-80
2023/08/28 00:40:25;;;;;;;8.68;7.78;;;;;;;22.75;100.00;100332.66;5133746;27;20035;-82
2023/08/28 00:42:52;;;;;;;11.10;8.05;;;;;;;22.29;100.00;100291.03;5133479;27;20039;-81
2023/08/28 00:45:18;;;;;;;14.98;9.07;;;;;;;22.63;100.00;100335.31;5145276;27;20107;-79
2023/08/28 00:47:45;;;;;;;10.48;8.70;;;;;;;22.54;100.00;100341.13;5151606;27;20473;-77
2023/08/28 00:50:10;;;;;;;12.98;7.57;;;;;;;22.68;100.00;100333.22;5134226;27;20069;-81
2023/08/28 00:52:36;;;;;;;14.30;8.70;;;;;;;22.35;100.00;100275.06;5102481;28;20031;-80
2023/08/28 00:55:03;;;;;;;10.38;8.00;;;;;;;22.81;100.00;100274.34;5113301;28;20059;-80
2023/08/28 00:57:29;;;;;;;10.05;7.82;;;;;;;22.69;100.00;100262.25;5095195;28;20024;-79
2023/08/28 00:59:55;;;;;;;11.27;8.05;;;;;;;21.97;100.00;100195.81;5112993;28;20028;-78
2023/08/28 01:02:21;;;;;;;9.55;7.10;;;;;;;22.09;100.00;100202.72;5094223;28;20027;-80
2023/08/28 01:04:46;;;;;;;9.45;7.10;;;;;;;22.92;100.00;100246.66;5113075;28;20031;-79
2023/08/28 01:07:23;;;;;;;8.90;7.75;;;;;;;22.32;100.00;100181.97;5112713;28;20034;-80
2023/08/28 01:10:19;;;;;;;9.77;7.50;;;;;;;22.38;100.00;100248.09;5112971;28;20130;-78
2023/08/28 01:12:56;;;;;;;9.32;6.90;;;;;;;22.92;100.00;100258.78;5112543;28;20040;-80
2023/08/28 01:15:23;;;;;;;11.35;6.85;;;;;;;22.54;100.00;100185.59;5111767;28;20023;-80
2023/08/28 01:17:56;;;;;;;9.82;7.13;;;;;;;22.43;100.00;100186.38;5112476;28;20114;-77
2023/08/28 01:20:23;;;;;;;10.45;7.30;;;;;;;22.08;100.00;100149.28;5113008;28;20035;-80
2023/08/28 01:22:57;;;;;;;11.55;7.35;;;;;;;22.41;100.00;100250.47;5094750;28;20027;-79
2023/08/28 01:25:28;;;;;;;11.95;7.88;;;;;;;21.84;100.00;100189.88;5112835;28;20119;-81
2023/08/28 01:27:55;;;;;;;13.53;8.23;;;;;;;21.50;100.00;100206.91;5112593;28;20055;-79
2023/08/28 01:30:21;;;;;;;13.55;7.80;;;;;;;21.24;100.00;100143.19;5112360;28;20273;-79
2023/08/28 01:32:46;;;;;;;13.13;8.10;;;;;;;21.74;100.00;100215.56;5112006;28;20410;-71
2023/08/28 01:35:25;;;;;;;14.20;8.18;;;;;;;21.52;100.00;100212.81;5111516;28;20089;-80
2023/08/28 01:38:07;;;;;;;13.60;7.80;;;;;;;21.56;100.00;100170.25;5094254;28;20032;-79
2023/08/28 01:40:46;;;;;;;10.90;8.65;;;;;;;21.62;100.00;100203.47;5112431;28;20470;-79
2023/08/28 01:43:14;;;;;;;11.73;8.20;;;;;;;21.23;100.00;100126.88;5112808;28;20073;-78
2023/08/28 01:45:40;;;;;;;10.40;8.43;;;;;;;21.32;100.00;100136.56;5112551;28;20024;-79
2023/08/28 01:48:06;;;;;;;12.90;9.02;;;;;;;21.19;100.00;100135.78;5112408;28;20024;-79
2023/08/28 01:50:32;;;;;;;13.35;10.07;;;;;;;21.09;100.00;100110.66;5111010;28;20548;-80
2023/08/28 01:52:57;;;;;;;11.02;9.27;;;;;;;21.42;100.00;100158.28;5112274;28;20118;-78
2023/08/28 01:55:46;;;;;;;13.45;10.23;;;;;;;21.69;100.00;100227.97;5112130;28;20020;-77
2023/08/28 01:58:15;;;;;;;11.98;9.15;;;;;;;21.35;100.00;100169.97;5073899;28;20111;-78
2023/08/28 02:00:40;;;;;;;17.00;9.32;;;;;;;21.54;100.00;100179.88;5094334;28;20096;-77
2023/08/28 02:03:08;;;;;;;12.73;9.38;;;;;;;21.76;100.00;100230.97;5093760;28;20028;-78
2023/08/28 02:05:33;;;;;;;12.43;9.00;;;;;;;21.88;100.00;100218.03;5094035;28;20023;-79
2023/08/28 02:08:00;;;;;;;15.30;10.48;;;;;;;21.51;100.00;100174.94;5111837;28;20498;-78
2023/08/28 02:10:25;;;;;;;12.77;10.02;;;;;;;21.73;100.00;100176.84;5112301;28;20486;-80
2023/08/28 02:12:51;;;;;;;12.98;9.65;;;;;;;21.38;100.00;100169.78;5112148;28;20115;-78
2023/08/28 02:15:16;;;;;;;10.98;9.77;;;;;;;21.71;100.00;100228.69;5112137;28;20122;-79
2023/08/28 02:17:42;;;;;;;13.65;9.68;;;;;;;21.08;100.00;100147.75;5111580;28;20032;-79
2023/08/28 02:20:09;;;;;;;13.45;9.40;;;;;;;21.64;100.00;100381.94;5121645;27;20041;-78
2023/08/28 02:22:35;;;;;;;14.30;9.98;;;;;;;21.59;100.00;100258.00;5153096;27;20019;-78
2023/08/28 02:25:00;;;;;;;12.40;9.45;;;;;;;21.58;100.00;100228.75;5153359;27;20091;-79
2023/08/28 02:27:26;;;;;;;11.00;9.38;;;;;;;21.51;100.00;100213.75;5134557;27;20031;-76
2023/08/28 02:29:52;;;;;;;13.85;10.10;;;;;;;21.12;100.00;100154.38;5134996;27;20453;-77
2023/08/28 02:32:17;;;;;;;13.00;10.10;;;;;;;21.42;100.00;100193.66;5133198;27;20038;-78
2023/08/28 02:34:43;;;;;;;14.15;9.48;;;;;;;21.48;100.00;100121.63;5130906;28;20027;-78
2023/08/28 02:37:09;;;;;;;13.43;9.43;;;;;;;21.33;100.00;100076.13;5111824;28;20107;-77
2023/08/28 02:39:34;;;;;;;12.25;9.88;;;;;;;21.28;100.00;100049.75;5093672;28;20031;-79
2023/08/28 02:42:00;;;;;;;16.45;9.82;;;;;;;21.41;100.00;100063.47;5110906;28;20024;-78
2023/08/28 02:44:25;;;;;;;15.15;9.32;;;;;;;21.23;100.00;100023.41;5111357;28;20036;-77
2023/08/28 02:46:50;;;;;;;11.55;9.60;;;;;;;20.99;100.00;100011.34;5112144;28;20443;-78
2023/08/28 02:49:16;;;;;;;14.20;8.27;;;;;;;21.11;100.00;99993.25;5112927;28;20035;-79
2023/08/28 02:51:41;;;;;;;13.15;8.80;;;;;;;21.18;100.00;99991.03;5114216;28;20032;-77
2023/08/28 02:54:07;;;;;;;15.55;8.63;;;;;;;21.16;100.00;99961.88;5097680;28;20032;-80
2023/08/28 02:56:37;;;;;;;17.63;9.48;;;;;;;21.72;100.00;100050.91;5115567;28;20077;-77
2023/08/28 02:59:02;;;;;;;13.10;8.68;;;;;;;21.52;100.00;100039.44;5097319;28;20092;-80
2023/08/28 03:01:28;;;;;;;10.90;8.45;;;;;;;21.26;100.00;100036.13;5115199;28;20035;-81
2023/08/28 03:03:53;;;;;;;11.02;8.82;;;;;;;21.18;100.00;100020.31;5115679;28;20466;-77
2023/08/28 03:06:19;;;;;;;15.23;9.73;;;;;;;21.24;100.00;100081.94;5115840;28;20085;-77
2023/08/28 03:08:44;;;;;;;11.65;9.20;;;;;;;21.38;100.00;100156.00;5115125;28;20024;-75
2023/08/28 03:11:10;;;;;;;10.80;9.32;;;;;;;20.99;100.00;100158.72;5131222;27;20035;-77
2023/08/28 03:13:35;;;;;;;14.13;9.10;;;;;;;21.50;100.00;100196.56;5154652;27;20054;-76
2023/08/28 03:16:00;;;;;;;15.73;9.38;;;;;;;21.27;100.00;100207.66;5146685;27;20053;-78
2023/08/28 03:18:26;;;;;;;15.13;9.82;;;;;;;21.02;100.00;100154.19;5135249;27;20062;-75
2023/08/28 03:20:51;;;;;;;15.57;9.30;;;;;;;20.84;100.00;100188.19;5117180;27;20028;-76
2023/08/28 03:23:17;;;;;;;15.07;9.52;;;;;;;21.31;100.00;100268.63;5140733;27;20049;-76
2023/08/28 03:25:43;;;;;;;12.35;9.23;;;;;;;21.33;100.00;100290.84;5128580;27;20015;-78
2023/08/28 03:28:09;;;;;;;10.60;8.90;;;;;;;21.18;100.00;100263.44;5128272;27;20035;-76
2023/08/28 03:30:35;;;;;;;14.88;9.07;;;;;;;20.77;100.00;100213.63;5133628;27;20500;-79
2023/08/28 03:33:00;;;;;;;15.23;9.18;;;;;;;20.72;100.00;100188.06;5153209;27;20031;-76
2023/08/28 03:35:26;;;;;;;16.52;9.32;;;;;;;21.15;100.00;100173.13;5120972;27;20047;-77
2023/08/28 03:37:51;;;;;;;15.70;9.30;;;;;;;21.02;100.00;100159.34;5131436;27;20610;-79
2023/08/28 03:40:17;;;;;;;20.90;10.20;;;;;;;20.86;100.00;100173.41;5148347;27;20083;-77
2023/08/28 03:42:42;;;;;;;27.08;11.00;;;;;;;20.71;100.00;100181.25;5137266;27;20058;-77
2023/08/28 03:45:08;;;;;;;37.58;12.20;;;;;;;20.00;100.00;100128.28;5120734;27;20028;-80
2023/08/28 03:47:34;;;;;;;53.22;12.45;;;;;;;20.30;100.00;100170.19;5141918;27;20031;-76
2023/08/28 03:49:59;;;;;;;30.80;11.55;;;;;;;19.82;100.00;100155.25;5128404;27;20498;-75
2023/08/28 03:52:24;;;;;;;22.45;9.90;;;;;;;19.68;100.00;100155.28;5108912;28;20028;-74
2023/08/28 03:54:50;;;;;;;16.67;11.52;;;;;;;19.74;100.00;100260.69;5090813;28;20089;-75
2023/08/28 03:57:15;;;;;;;20.38;13.02;;;;;;;19.88;100.00;100297.66;5092492;28;20858;-74
2023/08/28 03:59:40;;;;;;;20.23;11.82;;;;;;;20.21;100.00;100301.66;5092362;28;20036;-72
2023/08/28 04:02:06;;;;;;;18.25;13.18;;;;;;;19.95;100.00;100264.53;5091483;28;20067;-73
2023/08/28 04:04:31;;;;;;;18.05;12.75;;;;;;;19.93;100.00;100276.69;5092716;28;20181;-73
2023/08/28 04:06:58;;;;;;;16.17;12.43;;;;;;;20.17;100.00;100300.16;5092323;28;20076;-70
2023/08/28 04:09:24;;;;;;;18.00;12.38;;;;;;;20.03;100.00;100209.84;5092992;28;20012;-73
2023/08/28 04:11:51;;;;;;;23.40;14.45;;;;;;;20.16;100.00;100298.53;5091027;28;20119;-75
2023/08/28 04:14:17;;;;;;;20.85;13.90;;;;;;;19.80;100.00;100256.00;5093080;28;20032;-75
2023/08/28 04:16:42;;;;;;;21.80;16.15;;;;;;;19.84;100.00;100277.28;5106961;28;20032;-75
2023/08/28 04:19:08;;;;;;;22.92;15.70;;;;;;;19.88;100.00;100297.66;5084775;28;20068;-73
2023/08/28 04:21:33;;;;;;;20.55;13.90;;;;;;;19.96;100.00;100322.16;5092450;28;20028;-74
2023/08/28 04:23:58;;;;;;;18.17;13.50;;;;;;;19.09;100.00;100207.06;5092632;28;20166;-73
2023/08/28 04:26:24;;;;;;;27.92;18.30;;;;;;;19.49;100.00;100276.81;5102532;27;20035;-75
2023/08/28 04:28:49;;;;;;;33.85;20.00;;;;;;;19.74;100.00;100345.84;5101169;27;20089;-75
2023/08/28 04:31:15;;;;;;;20.00;13.23;;;;;;;20.24;100.00;100341.06;5101954;27;20027;-74
2023/08/28 04:33:40;;;;;;;24.58;13.00;;;;;;;20.34;100.00;100277.56;5118629;27;20038;-73
2023/08/28 04:36:05;;;;;;;19.38;13.52;;;;;;;20.54;100.00;100269.38;5096205;28;20036;-75
2023/08/28 04:38:31;;;;;;;15.98;12.52;;;;;;;20.53;100.00;100194.53;5108886;28;20039;-76
2023/08/28 04:40:56;;;;;;;18.90;12.77;;;;;;;20.82;100.00;100218.50;5112260;28;20034;-72
2023/08/28 04:43:22;;;;;;;15.57;11.57;;;;;;;20.56;100.00;100140.09;5110947;28;20040;-74
2023/08/28 04:45:50;;;;;;;17.17;12.40;;;;;;;20.64;100.00;100216.16;5113344;28;20511;-75
2023/08/28 04:48:16;;;;;;;15.40;12.45;;;;;;;20.74;100.00;100237.91;5112709;28;20030;-75
2023/08/28 04:50:41;;;;;;;15.45;12.20;;;;;;;20.84;100.00;100271.72;5109180;28;20134;-76
2023/08/28 04:53:07;;;;;;;16.33;11.63;;;;;;;20.98;100.00;100335.44;5111461;28;20086;-77
2023/08/28 04:55:33;;;;;;;17.60;11.70;;;;;;;21.19;100.00;100396.19;5111549;28;20076;-77
2023/08/28 04:57:58;;;;;;;14.73;12.27;;;;;;;20.65;100.00;100388.41;5112431;28;20028;-76
2023/08/28 05:00:24;;;;;;;21.83;16.90;;;;;;;20.93;100.00;100482.31;5112795;28;20401;-76
2023/08/28 05:02:49;;;;;;;19.35;14.60;;;;;;;21.40;100.00;100574.13;5093735;28;20115;-75
2023/08/28 05:05:15;;;;;;;20.10;15.35;;;;;;;21.60;100.00;100570.28;5094074;28;20055;-76
2023/08/28 05:07:40;;;;;;;19.17;15.07;;;;;;;21.48;100.00;100496.00;5113010;28;20110;-75
2023/08/28 05:10:06;;;;;;;22.52;17.35;;;;;;;22.16;100.00;100536.38;5112873;28;20059;-76
2023/08/28 05:12:31;;;;;;;19.98;16.80;;;;;;;22.21;100.00;100350.34;5112661;28;20432;-75
2023/08/28 05:14:57;;;;;;;21.60;16.92;;;;;;;22.30;100.00;100084.59;5094834;28;20028;-76
2023/08/28 05:17:22;;;;;;;28.60;19.38;;;;;;;22.85;100.00;100069.13;5112499;28;20512;-76
2023/08/28 05:19:47;;;;;;;20.10;16.65;;;;;;;22.91;100.00;100028.91;5094252;28;20038;-75
2023/08/28 05:22:13;;;;;;;18.60;13.68;;;;;;;22.88;100.00;99967.72;5112526;28;20034;-76
2023/08/28 05:24:38;;;;;;;18.45;11.95;;;;;;;23.42;100.00;100019.63;5112839;28;20058;-75
2023/08/28 05:27:04;;;;;;;17.00;11.73;;;;;;;23.50;100.00;100016.41;5112719;28;20031;-75
2023/08/28 05:29:29;;;;;;;16.30;10.90;;;;;;;23.93;100.00;99983.38;5112213;28;20039;-77
2023/08/28 05:31:55;;;;;;;18.27;11.32;;;;;;;23.74;100.00;99921.78;5094017;28;20035;-77
2023/08/28 05:34:20;;;;;;;22.30;10.65;;;;;;;24.13;100.00;99959.19;5112279;28;20097;-75
2023/08/28 05:36:46;;;;;;;21.92;9.98;;;;;;;23.99;100.00;99915.34;5094595;28;20031;-75
2023/08/28 05:39:11;;;;;;;17.80;9.13;;;;;;;24.57;100.00;99911.22;5094508;28;20030;-74
2023/08/28 05:41:37;;;;;;;16.13;9.70;;;;;;;24.89;100.00;99980.34;5093802;28;20024;-75
2023/08/28 05:44:02;;;;;;;17.70;9.43;;;;;;;24.43;100.00;99950.56;5112677;28;20127;-77
2023/08/28 05:46:27;;;;;;;14.75;8.75;;;;;;;24.92;100.00;99928.00;5111760;28;20032;-77
2023/08/28 05:48:53;;;;;;;14.95;8.88;;;;;;;25.26;100.00;99959.69;5112420;28;20050;-77
2023/08/28 05:51:18;;;;;;;17.27;9.50;;;;;;;25.13;100.00;99999.97;5105904;28;20597;-78
2023/08/28 05:53:44;;;;;;;15.38;9.10;;;;;;;25.53;100.00;99996.31;5131167;28;20087;-78
2023/08/28 05:56:09;;;;;;;13.38;8.45;;;;;;;25.61;100.00;100009.47;5132588;28;20019;-79
2023/08/28 05:58:35;;;;;;;12.85;8.38;;;;;;;26.25;100.00;100021.88;5114391;28;20110;-72
2023/08/28 06:01:00;;;;;;;12.02;8.55;;;;;;;25.83;100.00;100047.44;5132687;28;20123;-78
2023/08/28 06:03:25;;;;;;;13.73;8.52;;;;;;;25.52;100.00;100025.94;5132687;28;20031;-77
2023/08/28 06:05:51;;;;;;;15.80;8.10;;;;;;;25.36;100.00;99983.94;5132900;28;20224;-74
2023/08/28 06:08:16;;;;;;;11.13;8.07;;;;;;;26.04;100.00;100027.28;5132939;28;20467;-79
2023/08/28 06:10:42;;;;;;;14.88;8.23;;;;;;;26.47;100.00;100013.72;5132825;28;20027;-77
2023/08/28 06:13:07;;;;;;;15.98;9.50;;;;;;;26.03;100.00;99988.31;5132174;28;20102;-76
2023/08/28 06:15:34;;;;;;;16.00;8.98;;;;;;;26.44;100.00;100025.25;5132628;28;20034;-77
2023/08/28 06:17:59;;;;;;;14.43;8.35;;;;;;;26.11;100.00;100007.50;5114232;28;20027;-77
2023/08/28 06:20:25;;;;;;;12.00;8.23;;;;;;;25.91;100.00;99952.94;5132363;28;20114;-77
2023/08/28 06:22:50;;;;;;;9.90;8.18;;;;;;;26.39;100.00;100045.75;5113906;27;20434;-77
2023/08/28 06:25:16;;;;;;;15.05;8.85;;;;;;;26.50;100.00;100058.59;5135557;27;20031;-77
2023/08/28 06:27:41;;;;;;;11.70;7.43;;;;;;;26.76;100.00;100021.47;5136424;27;20029;-76
2023/08/28 06:30:07;;;;;;;12.75;7.22;;;;;;;27.03;100.00;100006.63;5136198;27;20027;-71
2023/08/28 06:32:33;;;;;;;10.57;7.43;;;;;;;27.87;100.00;100067.22;5136594;27;20030;-74
2023/08/28 06:35:01;;;;;;;11.23;6.43;;;;;;;27.14;100.00;100048.19;5136328;27;20513;-76
2023/08/28 06:37:27;;;;;;;8.35;6.50;;;;;;;27.22;100.00;100077.00;5136446;27;20114;-76
2023/08/28 06:39:53;;;;;;;10.77;6.47;;;;;;;27.60;100.00;100075.13;5117793;27;20122;-74
2023/08/28 06:42:18;;;;;;;13.18;6.03;;;;;;;27.34;100.00;100060.19;5136158;27;20068;-73
2023/08/28 06:44:44;;;;;;;9.43;5.95;;;;;;;27.01;100.00;100019.00;5135924;27;20029;-75
2023/08/28 06:47:09;;;;;;;10.18;5.80;;;;;;;27.41;100.00;100003.75;5148380;27;20031;-74
2023/08/28 06:49:35;;;;;;;13.82;6.18;;;;;;;27.74;100.00;100072.00;5148581;27;20477;-77
2023/08/28 06:52:03;;;;;;;10.18;6.03;;;;;;;28.48;100.00;100059.34;5135856;27;20538;-77
2023/08/28 06:54:29;;;;;;;9.45;5.80;;;;;;;28.18;100.00;100069.31;5117799;27;20031;-81
2023/08/28 06:56:54;;;;;;;7.70;5.68;;;;;;;28.60;100.00;100082.50;5127378;27;20039;-82
2023/08/28 06:59:20;;;;;;;11.25;6.05;;;;;;;28.05;100.00;100073.25;5114524;28;20032;-81
2023/08/28 07:01:45;;;;;;;7.28;5.35;;;;;;;27.42;100.00;100073.34;5114841;28;20031;-79
2023/08/28 07:04:10;;;;;;;10.20;5.55;;;;;;;28.36;100.00;100027.38;5115666;28;20032;-78
2023/08/28 07:06:36;;;;;;;8.25;5.50;;;;;;;28.37;100.00;100047.34;5115519;28;20027;-80
2023/08/28 07:09:01;;;;;;;7.70;5.38;;;;;;;28.23;100.00;100071.44;5115337;28;20032;-78
2023/08/28 07:11:27;;;;;;;9.23;5.18;;;;;;;29.38;100.00;100098.88;5096437;28;20093;-76
2023/08/28 07:13:54;;;;;;;9.05;5.53;;;;;;;29.23;100.00;100130.13;5116216;28;20515;-78
2023/08/28 07:16:20;;;;;;;6.88;5.22;;;;;;;29.45;100.00;100118.25;5116358;28;20024;-80
2023/08/28 07:18:45;;;;;;;6.97;5.43;;;;;;;28.47;100.00;100137.03;5115571;28;20114;-76
2023/08/28 07:21:11;;;;;;;8.93;5.30;;;;;;;28.68;100.00;100069.44;5114447;28;20031;-77
2023/08/28 07:23:36;;;;;;;13.35;5.35;;;;;;;29.15;100.00;100079.50;5113987;28;20077;-77
2023/08/28 07:26:02;;;;;;;10.95;5.72;;;;;;;29.46;100.00;100138.22;5115256;28;20027;-77
2023/08/28 07:28:29;;;;;;;6.40;5.05;;;;;;;29.15;100.00;100098.66;5115363;28;20066;-77
2023/08/28 07:30:59;;;;;;;8.07;4.90;;;;;;;29.53;100.00;100166.28;5113849;28;20512;-75
2023/08/28 07:33:25;;;;;;;7.25;5.53;;;;;;;29.23;100.00;100182.53;5114509;28;20024;-76
2023/08/28 07:35:51;;;;;;;5.35;4.82;;;;;;;29.86;100.00;100169.81;5114673;28;20032;-75
2023/08/28 07:38:17;;;;;;;6.38;4.95;;;;;;;30.04;100.00;100236.09;5113866;28;20409;-75
2023/08/28 07:40:43;;;;;;;6.57;4.93;;;;;;;29.80;100.00;100191.44;5114346;28;20012;-77
2023/08/28 07:43:08;;;;;;;6.78;4.90;;;;;;;30.41;100.00;100186.59;5105776;27;20042;-77
2023/08/28 07:45:34;;;;;;;8.50;4.90;;;;;;;28.88;100.00;100154.66;5134497;27;20027;-75
2023/08/28 07:47:59;;;;;;;6.82;4.88;;;;;;;29.01;100.00;100231.03;5135187;27;20549;-75
2023/08/28 07:50:28;;;;;;;9.82;5.53;;;;;;;29.95;100.00;100168.84;5116618;27;20075;-75
2023/08/28 07:52:53;;;;;;;5.70;4.38;;;;;;;29.33;100.00;100211.25;5134481;27;20091;-76
2023/08/28 07:55:19;;;;;;;5.20;4.45;;;;;;;29.56;100.00;100283.91;5116695;27;20032;-76
2023/08/28 07:57:44;;;;;;;7.47;4.82;;;;;;;29.94;100.00;100217.03;5134595;27;20106;-76
2023/08/28 08:00:13;;;;;;;6.18;4.50;;;;;;;30.26;100.00;100218.91;5134734;27;20050;-76
2023/08/28 08:02:40;;;;;;;9.18;4.60;;;;;;;30.69;100.00;100210.72;5134613;27;20123;-75
2023/08/28 08:05:06;;;;;;;5.78;4.63;;;;;;;30.75;100.00;100252.91;5134351;27;20076;-75
2023/08/28 08:07:34;;;;;;;5.45;4.30;;;;;;;31.44;100.00;100270.72;5116470;27;20027;-77
2023/08/28 08:10:00;;;;;;;7.82;4.93;;;;;;;30.73;100.00;100228.59;5116329;27;20023;-76
2023/08/28 08:12:28;;;;;;;7.55;4.65;;;;;;;30.07;100.00;100250.69;5134077;27;20496;-78
2023/08/28 08:14:53;;;;;;;5.90;4.22;;;;;;;30.29;100.00;100243.03;5134234;27;20544;-75
2023/08/28 08:17:19;;;;;;;9.75;4.30;;;;;;;29.95;100.00;100300.00;5116279;27;20150;-77
2023/08/28 08:19:44;;;;;;;5.63;4.28;;;;;;;30.34;100.00;100261.75;5134261;27;20086;-76
2023/08/28 08:22:11;;;;;;;7.13;4.22;;;;;;;31.27;100.00;100273.53;5134143;27;20057;-76
2023/08/28 08:24:37;;;;;;;8.13;4.28;;;;;;;31.30;100.00;100200.41;5134234;27;20034;-77
2023/08/28 08:27:03;;;;;;;6.63;4.70;;;;;;;31.74;100.00;100237.56;5134508;27;20027;-78
2023/08/28 08:29:29;;;;;;;6.35;4.57;;;;;;;31.14;100.00;100199.66;5115930;27;20111;-77
2023/08/28 08:31:54;;;;;;;7.50;4.70;;;;;;;30.90;100.00;100262.78;5138967;27;20089;-77
2023/08/28 08:34:19;;;;;;;5.55;4.10;;;;;;;31.42;100.00;100248.22;5134495;27;20504;-76
2023/08/28 08:36:45;;;;;;;4.28;3.80;;;;;;;32.03;100.00;100205.38;5134202;27;20084;-75
2023/08/28 08:39:10;;;;;;;6.22;4.32;;;;;;;31.80;100.00;100218.44;5134171;27;20137;-79
2023/08/28 08:41:39;;;;;;;10.07;4.18;;;;;;;32.86;100.00;100187.72;5133748;27;20035;-77
2023/08/28 08:44:05;;;;;;;7.15;4.13;;;;;;;32.58;100.00;100198.03;5133608;27;20027;-77
2023/08/28 08:46:31;;;;;;;6.97;4.07;;;;;;;30.62;100.00;100150.16;5133017;27;20034;-75
2023/08/28 08:48:59;;;;;;;4.55;4.07;;;;;;;32.19;100.00;100145.50;5133627;27;20113;-75
2023/08/28 08:51:30;;;;;;;5.47;4.30;;;;;;;32.23;100.00;100212.59;5115061;27;20050;-77
2023/08/28 08:54:04;;;;;;;5.57;4.00;;;;;;;31.83;100.00;100196.25;5133509;27;20063;-76
2023/08/28 08:56:32;;;;;;;6.35;4.10;;;;;;;32.64;100.00;100191.22;5114864;27;20024;-77
2023/08/28 08:59:03;;;;;;;8.43;4.10;;;;;;;32.30;100.00;100195.13;5133608;27;20085;-77
2023/08/28 09:01:29;;;;;;;7.65;4.53;;;;;;;32.63;100.00;100164.06;5133813;27;20054;-78
2023/08/28 09:03:57;;;;;;;7.30;4.00;;;;;;;33.36;100.00;100132.41;5133559;27;20100;-79
2023/08/28 09:06:25;;;;;;;5.25;4.03;;;;;;;32.37;100.00;100150.44;5133747;27;20028;-80
2023/08/28 09:08:50;;;;;;;6.93;4.20;;;;;;;32.85;100.00;100060.41;5133611;27;20031;-76
2023/08/28 09:11:16;;;;;;;6.15;4.07;;;;;;;32.24;100.00;100111.56;5115059;27;20401;-77
2023/08/28 09:13:42;;;;;;;6.53;4.57;;;;;;;33.18;100.00;100074.81;5133160;27;20486;-77
2023/08/28 09:16:07;;;;;;;6.85;4.35;;;;;;;32.67;100.00;100156.59;5133602;27;20039;-78
2023/08/28 09:18:33;;;;;;;8.45;4.40;;;;;;;32.63;100.00;100153.53;5133892;27;20034;-81
2023/08/28 09:21:07;;;;;;;5.68;3.90;;;;;;;33.12;100.00;100043.91;5134068;27;20116;-79
2023/08/28 09:23:33;;;;;;;6.05;3.85;;;;;;;32.60;100.00;100142.53;5136569;27;20075;-76
2023/08/28 09:25:59;;;;;;;7.00;4.25;;;;;;;32.72;100.00;100059.41;5134026;27;20122;-79
2023/08/28 09:28:24;;;;;;;5.68;3.72;;;;;;;32.74;100.00;100045.06;5133801;27;20024;-80
2023/08/28 09:30:50;;;;;;;5.10;4.30;;;;;;;32.25;100.00;100097.41;5133583;27;20030;-79
2023/08/28 09:33:15;;;;;;;5.00;4.13;;;;;;;32.96;100.00;100133.75;5133990;27;20042;-79
2023/08/28 09:35:42;;;;;;;4.70;4.05;;;;;;;33.44;100.00;100111.19;5133703;27;20063;-78
2023/08/28 09:38:09;;;;;;;7.30;4.00;;;;;;;33.29;100.00;100123.63;5115091;27;20031;-80
2023/08/28 09:40:41;;;;;;;6.75;3.95;;;;;;;33.02;100.00;100026.78;5115124;28;20706;-77
2023/08/28 09:43:13;;;;;;;5.70;4.20;;;;;;;32.73;100.00;100085.56;5133683;27;20489;-75
2023/08/28 09:45:40;;;;;;;9.45;4.28;;;;;;;33.62;100.00;100053.59;5114480;28;20126;-75
2023/08/28 09:48:07;;;;;;;6.60;4.35;;;;;;;33.21;100.00;100100.81;5133004;28;20400;-77
2023/08/28 09:50:34;;;;;;;5.32;4.22;;;;;;;33.67;100.00;100101.34;5133381;28;20115;-75
2023/08/28 09:53:20;;;;;;;7.50;4.57;;;;;;;33.61;100.00;100107.38;5114366;28;20032;-76
2023/08/28 09:55:48;;;;;;;7.88;4.63;;;;;;;33.18;100.00;100139.91;5132620;28;20043;-76
2023/08/28 09:58:14;;;;;;;9.18;4.50;;;;;;;33.35;100.00;100079.84;5133541;27;20027;-76
2023/08/28 10:00:40;;;;;;;7.45;4.15;;;;;;;33.80;100.00;100093.53;5137229;27;20039;-76
2023/08/28 10:03:08;;;;;;;6.13;4.22;;;;;;;32.77;100.00;100096.56;5137325;27;20031;-78
2023/08/28 10:05:37;;;;;;;6.90;4.00;;;;;;;32.87;100.00;100068.09;5141775;27;20027;-77
2023/08/28 10:08:06;;;;;;;7.25;4.25;;;;;;;33.40;100.00;100091.47;5154658;27;20027;-76
2023/08/28 10:10:32;;;;;;;5.38;4.00;;;;;;;33.00;100.00;100045.38;5138898;27;20031;-79
2023/08/28 10:13:00;;;;;;;6.20;4.43;;;;;;;34.21;100.00;100085.75;5136644;27;20035;-77
2023/08/28 10:15:27;;;;;;;11.32;4.50;;;;;;;34.22;100.00;100031.94;5118693;27;20481;-77
2023/08/28 10:17:54;;;;;;;7.38;4.32;;;;;;;34.18;100.00;100070.31;5136742;27;20035;-73
2023/08/28 10:20:22;;;;;;;7.40;4.13;;;;;;;33.66;100.00;99999.44;5136261;27;20038;-77
2023/08/28 10:22:49;;;;;;;7.63;4.30;;;;;;;33.31;100.00;100042.50;5137210;27;20118;-76
2023/08/28 10:25:16;;;;;;;5.15;4.28;;;;;;;33.10;100.00;100053.81;5136726;27;20027;-76
2023/08/28 10:27:42;;;;;;;6.72;4.20;;;;;;;34.02;100.00;100021.25;5118385;27;20019;-76
2023/08/28 10:30:08;;;;;;;7.95;4.30;;;;;;;34.24;100.00;100002.69;5118163;27;20031;-76
2023/08/28 10:32:35;;;;;;;5.13;3.80;;;;;;;34.15;100.00;100065.41;5136296;27;20031;-78
2023/08/28 10:35:02;;;;;;;6.78;4.20;;;;;;;34.17;100.00;100073.16;5136165;27;20042;-78
2023/08/28 10:37:30;;;;;;;7.38;5.40;;;;;;;34.35;100.00;100068.22;5136124;27;20047;-79
2023/08/28 10:40:01;;;;;;;6.28;4.07;;;;;;;34.67;100.00;100044.63;5136503;27;20035;-80
2023/08/28 10:42:26;;;;;;;;;;;;;;;34.21;100.00;100067.28;5118605;27;20034;-79
2023/08/28 10:44:52;;;;;;;5.25;4.00;;;;;;;33.98;100.00;100078.09;5135995;27;20309;-77
2023/08/28 10:47:19;;;;;;;7.75;4.40;;;;;;;34.12;100.00;100062.34;5136063;27;20038;-76
2023/08/28 10:49:45;;;;;;;7.80;4.20;;;;;;;34.06;100.00;100062.13;5136451;27;20126;-81
2023/08/28 10:52:10;;;;;;;5.53;3.90;;;;;;;33.83;100.00;100068.59;5117470;27;20074;-74
2023/08/28 10:54:40;;;;;;;7.13;4.07;;;;;;;33.95;100.00;100007.16;5135978;27;20031;-80
2023/08/28 10:57:12;;;;;;;5.23;3.90;;;;;;;34.27;100.00;100058.59;5135909;27;20035;-78
2023/08/28 10:59:43;;;;;;;7.85;3.63;;;;;;;33.45;100.00;99988.88;5117833;27;20023;-77
2023/08/28 11:02:09;;;;;;;6.45;4.03;;;;;;;34.04;100.00;99984.91;5136164;27;20027;-77
2023/08/28 11:04:37;;;;;;;7.95;3.90;;;;;;;33.91;100.00;99987.41;5135885;27;20511;-78
2023/08/28 11:07:03;;;;;;;6.28;4.00;;;;;;;34.65;100.00;100036.06;5135783;27;20031;-77
2023/08/28 11:09:29;;;;;;;5.95;3.75;;;;;;;34.51;100.00;100015.06;5135219;27;20035;-77